Time;durP1;ratioP1;P1;durP2;ratioP2;P2;SDS_P1;SDS_P2;PMS_P1;PMS_P2;Temp;Humidity;BMP_temperature;BMP_pressure;BME280_temperature;BME280_humidity;BME280_pressure;Samples;Min_cycle;Max_cycle;Signal;HPM_P1;HPM_P2
2024/01/15 00:01:40;;;;;;;5.70;5.30;;;;;;;;;;5127861;28;20122;-89
2024/01/15 00:04:25;;;;;;;5.72;5.28;;;;;;;;;;5116424;28;20134;-90
2024/01/15 00:07:09;;;;;;;5.85;5.35;;;;;;;;;;5135564;28;20449;-91
2024/01/15 00:09:53;;;;;;;5.25;4.93;;;;;;;;;;5122457;28;20046;-90
2024/01/15 00:12:37;;;;;;;5.85;5.20;;;;;;;;;;5120850;28;20035;-89
2024/01/15 00:15:24;;;;;;;5.25;4.90;;;;;;;;;;5121004;28;20038;-90
2024/01/15 00:18:08;;;;;;;5.43;5.13;;;;;;;;;;5125046;27;20029;-91
2024/01/15 00:20:52;;;;;;;7.63;5.75;;;;;;;;;;5122231;27;20176;-89
2024/01/15 00:23:35;;;;;;;6.90;5.60;;;;;;;;;;5138683;27;20068;-91
2024/01/15 00:26:19;;;;;;;6.85;5.95;;;;;;;;;;5124576;27;20095;-91
2024/01/15 00:29:03;;;;;;;6.45;5.78;;;;;;;;;;5124667;27;20046;-90
2024/01/15 00:31:48;;;;;;;5.82;4.90;;;;;;;;;;5124155;27;20058;-90
2024/01/15 00:34:32;;;;;;;5.72;4.95;;;;;;;;;;5123760;27;20484;-90
2024/01/15 00:37:16;;;;;;;6.60;5.25;;;;;;;;;;5122123;27;20123;-89
2024/01/15 00:40:00;;;;;;;5.22;4.60;;;;;;;;;;5121582;27;20499;-89
2024/01/15 00:42:44;;;;;;;4.88;4.47;;;;;;;;;;5120861;27;20030;-89
2024/01/15 00:45:28;;;;;;;8.48;4.90;;;;;;;;;;5122484;27;20102;-89
2024/01/15 00:48:12;;;;;;;5.47;4.75;;;;;;;;;;5124823;27;20038;-90
2024/01/15 00:50:56;;;;;;;5.25;4.75;;;;;;;;;;5122644;27;20536;-90
2024/01/15 00:53:40;;;;;;;5.05;4.65;;;;;;;;;;5121847;27;20126;-90
2024/01/15 00:56:23;;;;;;;5.07;4.70;;;;;;;;;;5121259;27;20087;-90
2024/01/15 00:59:10;;;;;;;4.93;4.40;;;;;;;;;;5123103;27;20099;-90
2024/01/15 01:01:54;;;;;;;4.78;4.28;;;;;;;;;;5121195;27;20110;-89
2024/01/15 01:04:38;;;;;;;5.13;4.65;;;;;;;;;;5121854;27;20034;-92
2024/01/15 01:07:22;;;;;;;8.18;4.80;;;;;;;;;;5122006;27;20127;-89
2024/01/15 01:10:06;;;;;;;4.60;4.30;;;;;;;;;;5121582;27;20096;-90
2024/01/15 01:12:50;;;;;;;4.57;4.22;;;;;;;;;;5121206;27;20027;-89
2024/01/15 01:15:34;;;;;;;4.72;4.40;;;;;;;;;;5136857;27;20053;-89
2024/01/15 01:18:18;;;;;;;4.53;4.13;;;;;;;;;;5123183;27;20038;-89
2024/01/15 01:21:02;;;;;;;4.25;3.95;;;;;;;;;;5139686;27;20092;-90
2024/01/15 01:23:46;;;;;;;5.20;4.43;;;;;;;;;;5123267;27;20087;-90
2024/01/15 01:26:31;;;;;;;4.43;4.13;;;;;;;;;;5137264;27;20038;-90
2024/01/15 01:29:16;;;;;;;5.22;4.68;;;;;;;;;;5138820;27;20091;-89
2024/01/15 01:32:00;;;;;;;5.10;4.80;;;;;;;;;;5123354;27;20038;-91
2024/01/15 01:34:44;;;;;;;5.00;4.68;;;;;;;;;;5123324;27;20076;-90
2024/01/15 01:37:28;;;;;;;5.40;4.80;;;;;;;;;;5123341;27;20056;-91
2024/01/15 01:40:12;;;;;;;5.57;4.30;;;;;;;;;;5123119;27;20098;-90
2024/01/15 01:42:56;;;;;;;4.90;4.50;;;;;;;;;;5118226;27;20100;-91
2024/01/15 01:45:40;;;;;;;8.07;4.65;;;;;;;;;;5123037;27;20043;-91
2024/01/15 01:48:25;;;;;;;5.00;4.68;;;;;;;;;;5122948;27;20096;-90
2024/01/15 01:51:09;;;;;;;5.15;4.70;;;;;;;;;;5122231;27;20031;-89
2024/01/15 01:53:53;;;;;;;7.53;4.60;;;;;;;;;;5124028;27;20149;-89
2024/01/15 01:56:37;;;;;;;5.05;4.70;;;;;;;;;;5122579;27;20126;-91
2024/01/15 01:59:23;;;;;;;5.28;4.70;;;;;;;;;;5122409;27;20092;-90
2024/01/15 02:02:07;;;;;;;4.82;4.50;;;;;;;;;;5121209;27;20072;-90
2024/01/15 02:04:51;;;;;;;4.93;4.57;;;;;;;;;;5121992;27;20038;-91
2024/01/15 02:07:36;;;;;;;5.25;4.70;;;;;;;;;;5120584;27;20088;-90
2024/01/15 02:10:20;;;;;;;6.20;4.78;;;;;;;;;;5121493;27;20035;-91
2024/01/15 02:13:04;;;;;;;5.72;5.10;;;;;;;;;;5133469;27;20030;-89
2024/01/15 02:15:47;;;;;;;5.05;4.70;;;;;;;;;;5119742;27;20023;-89
2024/01/15 02:18:45;;;;;;;5.88;5.25;;;;;;;;;;5119105;27;20034;-89
2024/01/15 02:21:29;;;;;;;5.25;4.75;;;;;;;;;;5119402;27;20499;-91
2024/01/15 02:24:13;;;;;;;5.85;5.35;;;;;;;;;;5121693;27;20039;-90
2024/01/15 02:26:57;;;;;;;5.28;4.80;;;;;;;;;;5119502;27;20110;-91
2024/01/15 02:29:41;;;;;;;5.00;4.60;;;;;;;;;;5116779;27;20116;-89
2024/01/15 02:32:25;;;;;;;5.43;4.93;;;;;;;;;;5119606;27;20050;-89
2024/01/15 02:35:09;;;;;;;5.75;5.35;;;;;;;;;;5119928;27;20497;-90
2024/01/15 02:37:53;;;;;;;6.00;4.50;;;;;;;;;;5136534;27;20140;-89
2024/01/15 02:40:38;;;;;;;5.03;4.72;;;;;;;;;;5119040;27;20042;-90
2024/01/15 02:43:22;;;;;;;5.15;4.75;;;;;;;;;;5118450;27;20099;-90
2024/01/15 02:46:06;;;;;;;5.00;4.70;;;;;;;;;;5121922;27;20042;-91
2024/01/15 02:48:50;;;;;;;5.30;4.80;;;;;;;;;;5120861;27;20038;-89
2024/01/15 02:51:34;;;;;;;5.55;4.90;;;;;;;;;;5120570;27;20556;-90
2024/01/15 02:54:17;;;;;;;7.72;4.85;;;;;;;;;;5120547;27;20057;-89
2024/01/15 02:57:01;;;;;;;9.48;4.97;;;;;;;;;;5120006;27;20034;-90
2024/01/15 02:59:45;;;;;;;6.55;5.32;;;;;;;;;;5107898;28;20089;-91
2024/01/15 03:02:31;;;;;;;5.90;5.30;;;;;;;;;;5103049;28;20397;-89
2024/01/15 03:05:15;;;;;;;5.10;4.80;;;;;;;;;;5104185;28;20096;-88
2024/01/15 03:08:00;;;;;;;5.78;5.28;;;;;;;;;;5102771;28;20030;-89
2024/01/15 03:10:43;;;;;;;5.35;4.85;;;;;;;;;;5093344;28;20046;-90
2024/01/15 03:13:27;;;;;;;5.35;4.85;;;;;;;;;;5101471;28;20516;-90
2024/01/15 03:16:11;;;;;;;10.90;5.47;;;;;;;;;;5090789;28;20063;-89
2024/01/15 03:18:55;;;;;;;5.40;4.90;;;;;;;;;;5088689;28;20054;-90
2024/01/15 03:21:39;;;;;;;5.20;4.80;;;;;;;;;;5089822;28;20042;-90
2024/01/15 03:24:23;;;;;;;5.25;4.75;;;;;;;;;;5087051;28;20039;-89
2024/01/15 03:27:07;;;;;;;4.80;4.50;;;;;;;;;;5098493;28;20173;-89
2024/01/15 03:29:51;;;;;;;5.47;4.90;;;;;;;;;;5094346;28;20031;-90
2024/01/15 03:32:35;;;;;;;5.03;4.53;;;;;;;;;;5086697;28;20050;-91
2024/01/15 03:35:19;;;;;;;9.68;4.75;;;;;;;;;;5086300;28;20097;-89
2024/01/15 03:38:03;;;;;;;6.80;4.72;;;;;;;;;;5086245;28;20097;-89
2024/01/15 03:40:47;;;;;;;6.10;4.40;;;;;;;;;;5103483;28;20039;-90
2024/01/15 03:43:31;;;;;;;5.05;4.28;;;;;;;;;;5087092;28;20547;-91
2024/01/15 03:46:15;;;;;;;4.60;4.20;;;;;;;;;;5084270;28;20504;-90
2024/01/15 03:49:05;;;;;;;6.00;4.40;;;;;;;;;;5087491;28;20035;-90
2024/01/15 03:51:49;;;;;;;4.75;4.35;;;;;;;;;;5082426;28;20128;-86
2024/01/15 03:54:33;;;;;;;4.40;4.10;;;;;;;;;;5090253;28;20463;-87
2024/01/15 03:57:17;;;;;;;5.15;4.40;;;;;;;;;;5087559;28;20533;-86
2024/01/15 04:00:01;;;;;;;5.03;4.70;;;;;;;;;;5093187;28;20520;-86
2024/01/15 04:02:45;;;;;;;4.82;4.53;;;;;;;;;;5078207;28;20520;-85
2024/01/15 04:05:29;;;;;;;4.57;4.20;;;;;;;;;;5094021;28;20070;-86
2024/01/15 04:08:13;;;;;;;5.05;4.40;;;;;;;;;;5092789;28;20038;-86
2024/01/15 04:10:57;;;;;;;5.45;4.60;;;;;;;;;;5092452;28;20051;-86
2024/01/15 04:13:41;;;;;;;6.47;5.03;;;;;;;;;;5093904;28;20105;-85
2024/01/15 04:16:25;;;;;;;4.47;4.28;;;;;;;;;;5076607;28;20070;-85
2024/01/15 04:19:09;;;;;;;5.18;4.78;;;;;;;;;;5092446;28;20101;-87
2024/01/15 04:21:52;;;;;;;6.15;4.68;;;;;;;;;;5077823;28;20034;-87
2024/01/15 04:24:37;;;;;;;4.75;4.55;;;;;;;;;;5092516;28;20406;-86
2024/01/15 04:27:21;;;;;;;4.80;4.60;;;;;;;;;;5076622;28;20505;-85
2024/01/15 04:30:05;;;;;;;5.72;5.20;;;;;;;;;;5076370;28;20043;-86
2024/01/15 04:32:48;;;;;;;5.57;5.25;;;;;;;;;;5075950;28;20059;-87
2024/01/15 04:35:32;;;;;;;5.22;5.00;;;;;;;;;;5091796;28;20034;-86
2024/01/15 04:38:16;;;;;;;6.53;5.10;;;;;;;;;;5077420;28;20120;-85
2024/01/15 04:41:00;;;;;;;5.18;4.78;;;;;;;;;;5077059;28;20035;-86
2024/01/15 04:43:44;;;;;;;5.10;4.80;;;;;;;;;;5092137;28;20035;-85
2024/01/15 04:46:28;;;;;;;7.28;4.90;;;;;;;;;;5091975;28;20039;-89
2024/01/15 04:49:12;;;;;;;4.78;4.47;;;;;;;;;;5090769;28;20152;-86
2024/01/15 04:51:56;;;;;;;4.93;4.53;;;;;;;;;;5077068;28;20086;-87
2024/01/15 04:54:40;;;;;;;7.88;4.40;;;;;;;;;;5077779;28;20093;-85
2024/01/15 04:57:24;;;;;;;4.80;4.35;;;;;;;;;;5077191;28;20038;-85
2024/01/15 05:00:08;;;;;;;4.90;4.40;;;;;;;;;;5076791;28;20055;-86
2024/01/15 05:02:52;;;;;;;4.40;4.10;;;;;;;;;;5074434;28;20039;-87
2024/01/15 05:05:35;;;;;;;4.72;4.43;;;;;;;;;;5077189;28;20107;-86
2024/01/15 05:08:19;;;;;;;4.50;4.20;;;;;;;;;;5077064;28;20035;-86
2024/01/15 05:11:03;;;;;;;4.97;4.47;;;;;;;;;;5076659;28;20027;-86
2024/01/15 05:13:47;;;;;;;5.07;4.68;;;;;;;;;;5075412;28;20093;-87
2024/01/15 05:16:31;;;;;;;5.20;4.70;;;;;;;;;;5076529;28;20093;-85
2024/01/15 05:19:15;;;;;;;6.85;4.65;;;;;;;;;;5076844;28;20040;-86
2024/01/15 05:21:59;;;;;;;4.70;4.40;;;;;;;;;;5075469;28;20050;-84
2024/01/15 05:24:43;;;;;;;4.40;4.20;;;;;;;;;;5076599;28;20499;-86
2024/01/15 05:27:27;;;;;;;4.78;4.47;;;;;;;;;;5091804;28;20513;-86
2024/01/15 05:30:11;;;;;;;5.40;4.90;;;;;;;;;;5075397;28;20079;-86
2024/01/15 05:32:55;;;;;;;4.70;4.30;;;;;;;;;;5076017;28;20539;-85
2024/01/15 05:35:39;;;;;;;4.90;4.60;;;;;;;;;;5077263;28;20043;-85
2024/01/15 05:38:23;;;;;;;5.55;5.05;;;;;;;;;;5091738;28;20493;-85
2024/01/15 05:41:07;;;;;;;5.68;5.28;;;;;;;;;;5076024;28;20116;-85
2024/01/15 05:43:50;;;;;;;6.38;4.93;;;;;;;;;;5091922;28;20097;-85
2024/01/15 05:46:34;;;;;;;4.95;4.57;;;;;;;;;;5076794;28;20035;-85
2024/01/15 05:49:18;;;;;;;6.20;5.07;;;;;;;;;;5076155;28;20496;-85
2024/01/15 05:52:02;;;;;;;4.65;4.45;;;;;;;;;;5075690;28;20070;-86
2024/01/15 05:54:46;;;;;;;5.10;4.70;;;;;;;;;;5075444;28;20085;-86
2024/01/15 05:57:30;;;;;;;5.28;4.90;;;;;;;;;;5090297;28;20032;-85
2024/01/15 06:00:14;;;;;;;5.80;5.40;;;;;;;;;;5092098;28;20051;-85
2024/01/15 06:02:59;;;;;;;5.40;5.10;;;;;;;;;;5090724;28;20031;-86
2024/01/15 06:05:43;;;;;;;5.40;5.00;;;;;;;;;;5090899;28;20043;-86
2024/01/15 06:08:27;;;;;;;5.18;4.88;;;;;;;;;;5090666;28;20505;-86
2024/01/15 06:11:11;;;;;;;5.18;4.90;;;;;;;;;;5089865;28;20039;-86
2024/01/15 06:13:56;;;;;;;5.38;5.10;;;;;;;;;;5075145;28;20093;-86
2024/01/15 06:16:39;;;;;;;4.30;4.00;;;;;;;;;;5091014;28;20136;-86
2024/01/15 06:19:23;;;;;;;4.78;4.40;;;;;;;;;;5075061;28;20027;-85
2024/01/15 06:22:07;;;;;;;4.50;4.30;;;;;;;;;;5074934;28;20033;-87
2024/01/15 06:24:51;;;;;;;9.82;4.60;;;;;;;;;;5075823;28;20042;-86
2024/01/15 06:27:35;;;;;;;4.53;4.20;;;;;;;;;;5075458;28;20081;-85
2024/01/15 06:30:19;;;;;;;4.82;4.32;;;;;;;;;;5071249;28;20084;-85
2024/01/15 06:33:03;;;;;;;4.88;4.45;;;;;;;;;;5074990;28;20035;-87
2024/01/15 06:35:48;;;;;;;4.60;4.30;;;;;;;;;;5075273;28;20059;-86
2024/01/15 06:38:31;;;;;;;5.88;4.40;;;;;;;;;;5074417;28;21471;-87
2024/01/15 06:41:15;;;;;;;8.60;4.78;;;;;;;;;;5090624;28;20084;-87
2024/01/15 06:43:59;;;;;;;5.20;4.70;;;;;;;;;;5075532;28;20071;-86
2024/01/15 06:46:43;;;;;;;4.55;4.35;;;;;;;;;;5074058;28;20038;-86
2024/01/15 06:49:31;;;;;;;4.97;4.60;;;;;;;;;;5088765;28;20042;-85
2024/01/15 06:52:15;;;;;;;5.35;4.90;;;;;;;;;;5074009;28;20584;-86
2024/01/15 06:54:58;;;;;;;5.07;4.75;;;;;;;;;;5075132;28;20035;-85
2024/01/15 06:57:42;;;;;;;5.65;5.13;;;;;;;;;;5075237;28;20116;-85
2024/01/15 07:00:27;;;;;;;4.60;4.40;;;;;;;;;;5102169;28;20108;-84
2024/01/15 07:03:11;;;;;;;5.13;4.60;;;;;;;;;;5083049;28;20141;-85
2024/01/15 07:05:55;;;;;;;5.50;4.75;;;;;;;;;;5085560;28;20093;-86
2024/01/15 07:08:42;;;;;;;4.60;4.40;;;;;;;;;;5099905;28;20059;-86
2024/01/15 07:11:26;;;;;;;5.95;5.43;;;;;;;;;;5081673;28;20509;-85
2024/01/15 07:14:10;;;;;;;5.20;4.70;;;;;;;;;;5100557;28;20500;-85
2024/01/15 07:16:54;;;;;;;7.57;4.60;;;;;;;;;;5084657;28;20534;-86
2024/01/15 07:19:38;;;;;;;4.80;4.50;;;;;;;;;;5086764;28;20097;-86
2024/01/15 07:22:22;;;;;;;5.18;4.88;;;;;;;;;;5084531;28;20115;-86
2024/01/15 07:25:06;;;;;;;6.07;4.78;;;;;;;;;;5077556;28;20597;-85
2024/01/15 07:27:51;;;;;;;8.23;4.85;;;;;;;;;;5090060;28;20042;-85
2024/01/15 07:30:35;;;;;;;5.32;4.82;;;;;;;;;;5082527;28;20043;-85
2024/01/15 07:33:19;;;;;;;5.60;5.10;;;;;;;;;;5091022;28;20043;-84
2024/01/15 07:36:03;;;;;;;5.40;5.00;;;;;;;;;;5083905;28;20047;-85
2024/01/15 07:38:47;;;;;;;5.10;4.60;;;;;;;;;;5083330;28;20034;-85
2024/01/15 07:41:34;;;;;;;4.40;4.00;;;;;;;;;;5085164;28;20097;-84
2024/01/15 07:44:18;;;;;;;4.20;3.97;;;;;;;;;;5106918;28;20034;-84
2024/01/15 07:47:03;;;;;;;6.75;4.57;;;;;;;;;;5103139;28;20398;-87
2024/01/15 07:49:47;;;;;;;4.00;3.80;;;;;;;;;;5086865;28;20161;-86
2024/01/15 07:52:31;;;;;;;4.32;4.13;;;;;;;;;;5106830;28;20059;-85
2024/01/15 07:55:15;;;;;;;4.30;4.10;;;;;;;;;;5091875;28;20030;-85
2024/01/15 07:57:59;;;;;;;4.63;4.38;;;;;;;;;;5086748;28;20039;-84
2024/01/15 08:00:43;;;;;;;5.95;4.10;;;;;;;;;;5083913;28;20042;-86
2024/01/15 08:03:27;;;;;;;4.60;4.20;;;;;;;;;;5080831;28;20105;-86
2024/01/15 08:06:11;;;;;;;8.73;4.75;;;;;;;;;;5082201;28;20054;-86
2024/01/15 08:08:55;;;;;;;5.35;4.80;;;;;;;;;;5104148;28;20508;-86
2024/01/15 08:11:42;;;;;;;5.43;4.82;;;;;;;;;;5089712;28;20031;-86
2024/01/15 08:14:25;;;;;;;4.90;4.70;;;;;;;;;;5085407;28;20451;-85
2024/01/15 08:17:09;;;;;;;6.22;5.78;;;;;;;;;;5085639;28;20042;-87
2024/01/15 08:19:56;;;;;;;7.50;5.95;;;;;;;;;;5100705;28;20114;-87
2024/01/15 08:22:40;;;;;;;6.20;5.47;;;;;;;;;;5086358;28;20123;-87
2024/01/15 08:25:25;;;;;;;6.18;5.72;;;;;;;;;;5088397;28;20086;-85
2024/01/15 08:28:09;;;;;;;6.00;5.60;;;;;;;;;;5081809;28;20181;-87
2024/01/15 08:30:53;;;;;;;7.13;5.72;;;;;;;;;;5095002;28;20092;-86
2024/01/15 08:33:37;;;;;;;5.70;5.40;;;;;;;;;;5096505;28;20435;-88
2024/01/15 08:36:21;;;;;;;5.47;5.03;;;;;;;;;;5101765;28;20043;-85
2024/01/15 08:39:06;;;;;;;7.22;5.38;;;;;;;;;;5103493;28;20405;-87
2024/01/15 08:41:50;;;;;;;5.15;4.85;;;;;;;;;;5098620;28;20509;-87
2024/01/15 08:44:34;;;;;;;6.50;5.22;;;;;;;;;;5102926;28;20495;-89
2024/01/15 08:47:21;;;;;;;5.78;5.38;;;;;;;;;;5094606;28;20065;-91
2024/01/15 08:50:05;;;;;;;7.47;5.00;;;;;;;;;;5105899;28;20042;-89
2024/01/15 08:52:49;;;;;;;5.20;4.88;;;;;;;;;;5098898;28;20070;-88
2024/01/15 08:59:07;;;;;;;8.60;5.30;;;;;;;;;;5113299;28;20047;-88
2024/01/15 09:01:56;;;;;;;7.43;4.53;;;;;;;;;;5091897;28;20038;-87
2024/01/15 09:04:41;;;;;;;5.15;4.57;;;;;;;;;;5100420;28;20035;-88
2024/01/15 09:07:26;;;;;;;4.97;4.60;;;;;;;;;;5097936;28;20086;-88
2024/01/15 09:10:10;;;;;;;5.05;4.65;;;;;;;;;;5100224;28;20046;-87
2024/01/15 09:12:54;;;;;;;6.22;5.13;;;;;;;;;;5100872;28;20091;-88
2024/01/15 09:15:38;;;;;;;7.13;5.18;;;;;;;;;;5101041;28;20108;-90
2024/01/15 09:18:21;;;;;;;5.57;5.07;;;;;;;;;;5100397;28;20089;-86
2024/01/15 09:21:05;;;;;;;5.82;4.85;;;;;;;;;;5097501;28;20438;-88
2024/01/15 09:23:49;;;;;;;5.60;5.07;;;;;;;;;;5100046;28;20558;-88
2024/01/15 09:26:33;;;;;;;6.80;4.95;;;;;;;;;;5106219;28;20159;-91
2024/01/15 09:29:18;;;;;;;7.82;5.10;;;;;;;;;;5099392;28;20038;-88
2024/01/15 09:32:03;;;;;;;9.55;5.30;;;;;;;;;;5101460;28;20066;-90
2024/01/15 09:34:46;;;;;;;5.53;5.00;;;;;;;;;;5101165;28;20034;-90
2024/01/15 09:37:30;;;;;;;7.43;5.10;;;;;;;;;;5101481;28;20084;-91
2024/01/15 09:40:15;;;;;;;4.82;4.53;;;;;;;;;;5100956;28;20101;-90
2024/01/15 09:42:59;;;;;;;4.80;4.40;;;;;;;;;;5094810;28;20045;-91
2024/01/15 09:45:44;;;;;;;4.78;4.30;;;;;;;;;;5101251;28;20042;-90
2024/01/15 09:48:28;;;;;;;7.32;5.15;;;;;;;;;;5100906;28;20088;-90
2024/01/15 09:51:11;;;;;;;4.40;4.10;;;;;;;;;;5100712;28;20115;-90
2024/01/15 09:53:56;;;;;;;11.77;4.68;;;;;;;;;;5101126;28;20034;-91
2024/01/15 09:56:47;;;;;;;6.35;4.63;;;;;;;;;;5100639;28;20496;-90
2024/01/15 09:59:32;;;;;;;4.78;4.13;;;;;;;;;;5101148;28;20108;-90
2024/01/15 10:02:18;;;;;;;4.85;4.40;;;;;;;;;;5101289;28;20054;-91
2024/01/15 10:05:02;;;;;;;5.13;4.63;;;;;;;;;;5081515;28;20035;-91
2024/01/15 10:07:47;;;;;;;4.97;4.50;;;;;;;;;;5081472;28;20043;-91
2024/01/15 10:10:38;;;;;;;5.32;4.80;;;;;;;;;;5098360;28;20102;-91
2024/01/15 10:13:23;;;;;;;4.80;4.38;;;;;;;;;;5103067;28;20038;-89
2024/01/15 10:16:11;;;;;;;5.28;4.30;;;;;;;;;;5101734;28;20034;-90
2024/01/15 10:19:02;;;;;;;14.80;8.32;;;;;;;;;;5101847;28;20030;-88
2024/01/15 10:21:46;;;;;;;16.85;4.80;;;;;;;;;;5100501;28;20455;-89
2024/01/15 10:24:30;;;;;;;7.82;4.95;;;;;;;;;;5100852;28;20042;-89
2024/01/15 10:27:15;;;;;;;4.30;3.80;;;;;;;;;;5100945;28;20030;-91
2024/01/15 10:30:00;;;;;;;6.75;4.22;;;;;;;;;;5098139;28;20078;-85
2024/01/15 10:32:56;;;;;;;4.43;4.03;;;;;;;;;;5111498;28;20042;-84
2024/01/15 10:35:40;;;;;;;9.88;4.45;;;;;;;;;;5095904;28;20038;-85
2024/01/15 10:38:24;;;;;;;4.40;4.00;;;;;;;;;;5096091;28;20070;-84
2024/01/15 10:41:09;;;;;;;9.15;4.28;;;;;;;;;;5094886;28;20093;-87
2024/01/15 10:43:53;;;;;;;6.75;4.18;;;;;;;;;;5096493;28;20042;-86
2024/01/15 10:46:37;;;;;;;4.00;3.70;;;;;;;;;;5097876;28;20094;-91
2024/01/15 10:49:26;;;;;;;4.60;4.20;;;;;;;;;;5102561;28;20571;-90
2024/01/15 10:52:10;;;;;;;4.05;3.75;;;;;;;;;;5101972;28;20046;-91
2024/01/15 10:54:54;;;;;;;6.57;4.40;;;;;;;;;;5101907;28;20421;-91
2024/01/15 10:57:38;;;;;;;5.03;4.50;;;;;;;;;;5115906;28;20093;-91
2024/01/15 11:00:26;;;;;;;5.72;4.45;;;;;;;;;;5104398;28;20521;-90
2024/01/15 11:03:10;;;;;;;4.57;4.20;;;;;;;;;;5101528;28;20453;-91
2024/01/15 11:05:58;;;;;;;5.90;4.60;;;;;;;;;;5101079;28;20066;-91
2024/01/15 11:08:43;;;;;;;4.45;4.05;;;;;;;;;;5100419;28;20438;-89
2024/01/15 11:11:27;;;;;;;4.68;4.10;;;;;;;;;;5099822;28;20158;-89
2024/01/15 11:14:11;;;;;;;6.43;4.30;;;;;;;;;;5099913;28;20034;-89
2024/01/15 11:17:02;;;;;;;4.85;4.45;;;;;;;;;;5100892;28;20039;-89
2024/01/15 11:19:47;;;;;;;5.72;3.75;;;;;;;;;;5100497;28;20077;-89
2024/01/15 11:22:34;;;;;;;4.60;4.00;;;;;;;;;;5100799;28;20453;-89
2024/01/15 11:25:18;;;;;;;4.80;4.28;;;;;;;;;;5100431;28;20105;-91
2024/01/15 11:28:03;;;;;;;4.97;4.57;;;;;;;;;;5100627;28;20042;-90
2024/01/15 11:37:57;;;;;;;5.00;4.70;;;;;;;;;;5116065;28;20104;-90
2024/01/15 11:40:43;;;;;;;4.88;4.40;;;;;;;;;;5100888;28;20603;-91
2024/01/15 11:43:30;;;;;;;5.85;4.75;;;;;;;;;;5100443;28;20039;-91
2024/01/15 11:46:16;;;;;;;5.80;4.97;;;;;;;;;;5100722;28;20043;-90
2024/01/15 11:49:03;;;;;;;9.80;4.70;;;;;;;;;;5100818;28;20051;-91
2024/01/15 11:51:47;;;;;;;4.78;3.90;;;;;;;;;;5100918;28;20108;-88
2024/01/15 11:54:33;;;;;;;11.52;4.93;;;;;;;;;;5101720;28;20050;-91
2024/01/15 11:57:21;;;;;;;7.13;4.35;;;;;;;;;;5100910;28;20443;-91
2024/01/15 12:00:06;;;;;;;4.90;4.50;;;;;;;;;;5101072;28;20054;-91
2024/01/15 12:02:53;;;;;;;6.78;4.53;;;;;;;;;;5101782;28;20042;-90
2024/01/15 12:05:38;;;;;;;7.90;4.80;;;;;;;;;;5101561;28;20180;-89
2024/01/15 12:08:23;;;;;;;11.43;6.07;;;;;;;;;;5100222;28;20034;-89
2024/01/15 12:11:09;;;;;;;7.95;5.00;;;;;;;;;;5101097;28;20043;-89
2024/01/15 12:13:54;;;;;;;11.43;7.00;;;;;;;;;;5104006;28;20042;-89
2024/01/15 12:16:39;;;;;;;11.43;6.22;;;;;;;;;;5104864;28;20026;-89
2024/01/15 12:19:22;;;;;;;13.52;6.80;;;;;;;;;;5105157;28;20070;-89
2024/01/15 12:22:06;;;;;;;6.95;5.95;;;;;;;;;;5104699;28;20397;-89
2024/01/15 12:24:50;;;;;;;12.30;6.72;;;;;;;;;;5120193;28;20083;-90
2024/01/15 12:27:35;;;;;;;9.18;5.93;;;;;;;;;;5104930;28;20100;-89
2024/01/15 12:30:19;;;;;;;7.90;6.18;;;;;;;;;;5105067;28;20042;-90
2024/01/15 12:44:00;;;;;;;9.10;5.95;;;;;;;;;;5120148;28;20045;-90
2024/01/15 12:46:44;;;;;;;8.15;6.40;;;;;;;;;;5103013;28;20059;-89
2024/01/15 12:49:28;;;;;;;13.55;8.30;;;;;;;;;;5103534;28;20081;-89
2024/01/15 12:52:12;;;;;;;15.65;8.30;;;;;;;;;;5103816;28;20096;-89
2024/01/15 12:54:56;;;;;;;11.63;8.05;;;;;;;;;;5104161;28;20035;-89
2024/01/15 12:57:45;;;;;;;13.60;7.60;;;;;;;;;;5102518;28;20073;-89
2024/01/15 13:00:30;;;;;;;19.40;10.23;;;;;;;;;;5102897;28;20500;-89
2024/01/15 13:03:14;;;;;;;12.32;7.22;;;;;;;;;;5102604;28;20063;-89
2024/01/15 13:05:58;;;;;;;6.78;5.88;;;;;;;;;;5102828;28;20501;-89
2024/01/15 13:08:42;;;;;;;5.90;5.30;;;;;;;;;;5103445;28;20035;-88
2024/01/15 13:11:27;;;;;;;13.23;5.70;;;;;;;;;;5102815;28;20042;-91
2024/01/15 13:14:11;;;;;;;7.68;5.53;;;;;;;;;;5103416;28;20081;-90
2024/01/15 13:16:55;;;;;;;5.95;4.80;;;;;;;;;;5103912;28;20042;-91
2024/01/15 13:19:39;;;;;;;7.32;4.72;;;;;;;;;;5103318;28;20125;-89
2024/01/15 13:22:29;;;;;;;5.25;4.75;;;;;;;;;;5103239;28;20046;-91
2024/01/15 13:25:13;;;;;;;12.73;5.57;;;;;;;;;;5102369;28;20073;-91
2024/01/15 13:27:57;;;;;;;7.82;5.35;;;;;;;;;;5103118;28;20532;-91
2024/01/15 13:30:41;;;;;;;11.23;5.00;;;;;;;;;;5102908;28;20428;-91
2024/01/15 13:33:25;;;;;;;9.82;6.38;;;;;;;;;;5102804;28;20039;-91
2024/01/15 13:36:10;;;;;;;15.52;7.82;;;;;;;;;;5102097;28;20042;-91
2024/01/15 13:38:54;;;;;;;11.85;6.72;;;;;;;;;;5102990;28;20038;-90
2024/01/15 13:41:42;;;;;;;20.15;10.45;;;;;;;;;;5103089;28;20081;-90
2024/01/15 13:44:28;;;;;;;15.52;9.55;;;;;;;;;;5102408;28;20046;-88
2024/01/15 13:47:12;;;;;;;13.88;9.85;;;;;;;;;;5101819;28;20112;-91
2024/01/15 13:49:56;;;;;;;6.38;5.70;;;;;;;;;;5102102;28;20042;-91
2024/01/15 13:52:40;;;;;;;8.10;5.63;;;;;;;;;;5101766;28;20039;-91
2024/01/15 13:55:24;;;;;;;10.73;6.57;;;;;;;;;;5102864;28;20046;-91
2024/01/15 14:05:22;;;;;;;;;;;;;;;;;;5097924;28;20043;-89
2024/01/15 14:08:07;;;;;;;7.20;4.45;;;;;;;;;;5096295;28;19915;-91
2024/01/15 14:10:51;;;;;;;5.35;4.85;;;;;;;;;;5096062;28;20135;-90
2024/01/15 14:13:36;;;;;;;5.43;4.93;;;;;;;;;;5082291;28;20194;-90
2024/01/15 14:16:20;;;;;;;5.50;5.00;;;;;;;;;;5096058;28;20102;-90
2024/01/15 14:19:06;;;;;;;5.88;5.47;;;;;;;;;;5096081;28;20473;-90
2024/01/15 14:21:50;;;;;;;7.18;6.10;;;;;;;;;;5096423;28;20047;-90
2024/01/15 14:24:34;;;;;;;5.90;5.50;;;;;;;;;;5096641;28;20047;-90
2024/01/15 14:27:17;;;;;;;7.45;5.80;;;;;;;;;;5095849;28;20039;-91
2024/01/15 14:30:02;;;;;;;6.85;4.70;;;;;;;;;;5096043;28;20047;-91
2024/01/15 14:32:46;;;;;;;5.18;4.63;;;;;;;;;;5080062;28;20105;-87
2024/01/15 14:35:33;;;;;;;5.32;4.82;;;;;;;;;;5091510;28;20066;-86
2024/01/15 14:38:18;;;;;;;6.40;5.30;;;;;;;;;;5088340;28;20099;-86
2024/01/15 14:41:02;;;;;;;4.63;4.30;;;;;;;;;;5076899;28;20039;-86
2024/01/15 14:43:48;;;;;;;7.75;5.18;;;;;;;;;;5091688;28;20121;-85
2024/01/15 14:46:32;;;;;;;7.63;4.82;;;;;;;;;;5088760;28;20031;-87
2024/01/15 14:49:16;;;;;;;6.13;5.00;;;;;;;;;;5092170;28;20100;-88
2024/01/15 14:52:02;;;;;;;6.43;5.38;;;;;;;;;;5077356;28;20031;-86
2024/01/15 14:54:47;;;;;;;6.80;5.00;;;;;;;;;;5076841;28;20043;-87
2024/01/15 14:57:31;;;;;;;6.45;5.90;;;;;;;;;;5077329;28;20086;-87
2024/01/15 15:00:18;;;;;;;6.95;5.18;;;;;;;;;;5092189;28;20571;-86
2024/01/15 15:03:03;;;;;;;6.30;5.25;;;;;;;;;;5076389;28;20620;-86
2024/01/15 15:05:46;;;;;;;5.00;4.60;;;;;;;;;;5077348;28;20080;-88
2024/01/15 15:08:30;;;;;;;5.53;5.07;;;;;;;;;;5091824;28;20097;-86
2024/01/15 15:11:14;;;;;;;5.55;5.03;;;;;;;;;;5075948;28;20039;-84
2024/01/15 15:14:00;;;;;;;5.32;4.97;;;;;;;;;;5090916;28;20039;-86
2024/01/15 15:16:46;;;;;;;9.43;5.40;;;;;;;;;;5076373;28;20501;-85
2024/01/15 15:19:30;;;;;;;7.78;5.53;;;;;;;;;;5076035;28;20493;-87
2024/01/15 15:22:18;;;;;;;5.50;5.10;;;;;;;;;;5075708;28;20402;-85
2024/01/15 15:25:03;;;;;;;5.20;4.80;;;;;;;;;;5075888;28;20114;-86
2024/01/15 15:27:46;;;;;;;6.65;6.15;;;;;;;;;;5087789;28;20115;-87
2024/01/15 15:30:31;;;;;;;6.45;5.38;;;;;;;;;;5074385;28;20039;-85
2024/01/15 15:33:20;;;;;;;6.10;4.97;;;;;;;;;;5072689;28;20047;-85
2024/01/15 15:36:05;;;;;;;6.47;5.03;;;;;;;;;;5075976;28;20039;-84
2024/01/15 15:42:20;;;;;;;4.82;4.25;;;;;;;;;;5093436;28;20552;-88
2024/01/15 15:45:05;;;;;;;9.50;4.65;;;;;;;;;;5077524;28;20494;-87
2024/01/15 15:48:12;;;;;;;5.68;4.60;;;;;;;;;;5078901;28;20103;-89
2024/01/15 15:51:04;;;;;;;4.72;4.00;;;;;;;;;;5079619;28;20039;-87
2024/01/15 15:53:49;;;;;;;4.70;4.15;;;;;;;;;;5089480;28;20043;-91
2024/01/15 15:56:38;;;;;;;5.10;4.75;;;;;;;;;;5095977;28;20157;-91
2024/01/15 15:59:24;;;;;;;5.72;4.68;;;;;;;;;;5087108;28;20055;-90
2024/01/15 16:02:08;;;;;;;6.03;5.43;;;;;;;;;;5084751;28;20100;-90
2024/01/15 16:04:55;;;;;;;8.90;5.63;;;;;;;;;;5081298;28;20075;-90
2024/01/15 16:07:40;;;;;;;7.63;5.10;;;;;;;;;;5092932;28;20393;-89
2024/01/15 16:10:23;;;;;;;5.95;5.40;;;;;;;;;;5077587;28;20051;-89
2024/01/15 16:13:07;;;;;;;7.03;5.70;;;;;;;;;;5078645;28;20043;-89
2024/01/15 16:15:51;;;;;;;6.47;4.53;;;;;;;;;;5093631;28;20748;-89
2024/01/15 16:18:35;;;;;;;4.72;4.30;;;;;;;;;;5078077;28;20115;-84
2024/01/15 16:21:19;;;;;;;7.07;4.60;;;;;;;;;;5093842;28;20081;-86
2024/01/15 16:24:03;;;;;;;5.47;4.75;;;;;;;;;;5092639;28;20442;-86
2024/01/15 16:26:47;;;;;;;4.80;4.50;;;;;;;;;;5095236;28;20436;-88
2024/01/15 16:29:31;;;;;;;10.20;5.22;;;;;;;;;;5094054;28;20044;-84
2024/01/15 16:32:17;;;;;;;7.25;5.10;;;;;;;;;;5092398;28;20039;-85
2024/01/15 16:35:02;;;;;;;5.60;4.47;;;;;;;;;;5077041;28;20047;-85
2024/01/15 16:37:46;;;;;;;8.45;6.65;;;;;;;;;;5095089;28;20067;-83
2024/01/15 16:40:30;;;;;;;9.52;5.95;;;;;;;;;;5093130;28;20050;-84
2024/01/15 16:43:14;;;;;;;10.65;5.70;;;;;;;;;;5079330;28;20101;-84
2024/01/15 16:45:58;;;;;;;7.10;4.70;;;;;;;;;;5092252;28;20077;-88
2024/01/15 16:48:42;;;;;;;8.65;5.07;;;;;;;;;;5094333;28;20066;-85
2024/01/15 16:51:26;;;;;;;5.95;4.60;;;;;;;;;;5093227;28;20035;-85
2024/01/15 16:54:10;;;;;;;8.25;4.85;;;;;;;;;;5093177;28;20413;-86
2024/01/15 16:56:54;;;;;;;5.78;4.57;;;;;;;;;;5093367;28;20450;-85
2024/01/15 16:59:38;;;;;;;10.43;4.78;;;;;;;;;;5094649;28;20398;-85